Time;durP1;ratioP1;P1;durP2;ratioP2;P2;SDS_P1;SDS_P2;PMS_P1;PMS_P2;Temp;Humidity;BMP_temperature;BMP_pressure;BME280_temperature;BME280_humidity;BME280_pressure;Samples;Min_cycle;Max_cycle;Signal;HPM_P1;HPM_P2
2023/03/03 00:00:23;;;;;;;32.35;11.82;;;;;;;-148.88;100.00;77595.56;5110034;28;20024;-81
2023/03/03 00:02:48;;;;;;;37.47;12.98;;;;;;;-148.88;100.00;77601.66;5108915;28;20024;-81
2023/03/03 00:05:15;;;;;;;35.05;13.27;;;;;;;-148.88;100.00;77597.59;5100763;28;20028;-80
2023/03/03 00:07:44;;;;;;;32.85;13.00;;;;;;;-148.88;100.00;77640.28;5081888;28;20028;-80
2023/03/03 00:10:10;;;;;;;38.58;13.23;;;;;;;-148.88;100.00;77650.44;5105043;28;20024;-80
2023/03/03 00:12:45;;;;;;;33.85;12.55;;;;;;;-148.88;100.00;77630.13;5106016;28;20028;-81
2023/03/03 00:15:20;;;;;;;35.58;12.43;;;;;;;-148.88;100.00;77605.75;5107048;28;20035;-79
2023/03/03 00:17:46;;;;;;;36.70;12.57;;;;;;;-148.88;100.00;77585.41;5089485;28;20111;-80
2023/03/03 00:20:37;;;;;;;40.00;12.98;;;;;;;-148.88;100.00;77607.78;5108311;28;20036;-81
2023/03/03 00:23:23;;;;;;;37.45;13.23;;;;;;;-148.88;100.00;77589.47;5089588;28;20114;-81
2023/03/03 00:25:51;;;;;;;37.90;12.13;;;;;;;-148.88;100.00;77613.88;5107728;28;20030;-80
2023/03/03 00:28:31;;;;;;;37.97;12.40;;;;;;;-148.88;100.00;77628.09;5089723;28;20020;-81
2023/03/03 00:30:59;;;;;;;32.92;12.80;;;;;;;-148.88;100.00;77595.56;5108856;28;20054;-82
2023/03/03 00:33:31;;;;;;;33.47;11.40;;;;;;;-148.88;100.00;77619.97;5108943;28;20024;-82
2023/03/03 00:36:20;;;;;;;34.30;11.85;;;;;;;-148.88;100.00;77634.19;5108399;28;20024;-81
2023/03/03 00:38:47;;;;;;;38.80;12.68;;;;;;;-148.88;100.00;77615.91;5090115;28;20543;-80
2023/03/03 00:41:27;;;;;;;39.97;13.48;;;;;;;-148.88;100.00;77603.69;5085194;28;20027;-80
2023/03/03 00:43:53;;;;;;;38.58;12.57;;;;;;;-148.88;100.00;77607.78;5098343;28;20023;-80
2023/03/03 00:46:20;;;;;;;39.30;14.65;;;;;;;-148.88;100.00;77630.13;5101127;28;20035;-80
2023/03/03 00:48:49;;;;;;;35.25;11.95;;;;;;;-148.88;100.00;77624.03;5102086;28;20036;-80
2023/03/03 00:51:26;;;;;;;40.97;14.18;;;;;;;-148.88;100.00;77617.94;5084944;28;20062;-80
2023/03/03 00:53:51;;;;;;;41.65;12.60;;;;;;;-148.88;100.00;77603.69;5104679;28;20028;-80
2023/03/03 00:56:17;;;;;;;40.20;13.10;;;;;;;-148.88;100.00;77630.13;5088807;28;20047;-81
2023/03/03 00:58:47;;;;;;;40.05;13.82;;;;;;;-148.88;100.00;77603.69;5090278;28;20490;-81
2023/03/03 01:01:13;;;;;;;44.85;14.27;;;;;;;-148.88;100.00;77605.75;5108537;28;20459;-81
2023/03/03 01:03:39;;;;;;;45.03;13.80;;;;;;;-148.88;100.00;77634.19;5109487;28;20042;-80
2023/03/03 01:06:04;;;;;;;40.83;12.98;;;;;;;-148.88;100.00;77622.00;5108721;28;20028;-80
2023/03/03 01:08:30;;;;;;;42.47;13.57;;;;;;;-148.88;100.00;77603.69;5107351;28;20046;-81
2023/03/03 01:10:58;;;;;;;43.40;14.82;;;;;;;-148.88;100.00;77642.31;5089422;28;20031;-81
2023/03/03 01:13:31;;;;;;;40.60;13.15;;;;;;;-148.88;100.00;77628.09;5089344;28;20051;-80
2023/03/03 01:15:58;;;;;;;47.58;15.13;;;;;;;-148.88;100.00;77636.22;5089032;28;20046;-81
2023/03/03 01:18:24;;;;;;;47.70;14.38;;;;;;;-148.88;100.00;77642.31;5099854;28;20016;-80
2023/03/03 01:20:49;;;;;;;50.20;15.70;;;;;;;-148.88;100.00;77636.22;5099275;28;20039;-80
2023/03/03 01:23:14;;;;;;;44.70;15.75;;;;;;;-148.88;100.00;77642.31;5083206;28;20016;-80
2023/03/03 01:25:40;;;;;;;49.25;16.63;;;;;;;-148.88;100.00;77662.63;5101979;28;20028;-80
2023/03/03 01:28:05;;;;;;;54.13;17.23;;;;;;;-148.88;100.00;77650.44;5103312;28;20027;-81
2023/03/03 01:30:31;;;;;;;54.58;15.40;;;;;;;-148.88;100.00;77678.91;5085958;28;20083;-81
2023/03/03 01:32:56;;;;;;;42.22;14.05;;;;;;;-148.88;100.00;77644.34;5086338;28;20024;-81
2023/03/03 01:35:22;;;;;;;54.42;16.45;;;;;;;-148.88;100.00;77646.38;5088300;28;20474;-80
2023/03/03 01:37:47;;;;;;;49.17;14.48;;;;;;;-148.88;100.00;77699.22;5089568;28;20016;-81
2023/03/03 01:40:20;;;;;;;48.53;14.02;;;;;;;-148.88;100.00;77676.88;5088018;28;20439;-80
2023/03/03 01:42:46;;;;;;;49.42;14.82;;;;;;;-148.88;100.00;77654.50;5108177;28;20012;-81
2023/03/03 01:45:24;;;;;;;54.85;13.07;;;;;;;-148.88;100.00;77652.47;5088073;28;20031;-81
2023/03/03 01:48:14;;;;;;;54.30;14.82;;;;;;;-148.88;100.00;77650.44;5106091;28;20019;-81
2023/03/03 01:50:58;;;;;;;53.80;15.98;;;;;;;-148.88;100.00;77660.59;5105812;28;20024;-81
2023/03/03 01:53:46;;;;;;;53.20;15.02;;;;;;;-148.88;100.00;77646.38;5088402;28;20034;-80
2023/03/03 01:56:12;;;;;;;57.53;15.32;;;;;;;-148.88;100.00;77640.28;5097362;28;20073;-80
2023/03/03 01:58:42;;;;;;;63.63;17.00;;;;;;;-148.88;100.00;77662.63;5100305;28;20012;-81
2023/03/03 02:01:12;;;;;;;68.53;17.08;;;;;;;-148.88;100.00;77668.72;5101560;28;20036;-80
2023/03/03 02:03:38;;;;;;;65.75;18.00;;;;;;;-148.88;100.00;77648.41;5084720;28;20393;-80
2023/03/03 02:06:08;;;;;;;62.10;15.70;;;;;;;-148.88;100.00;77658.56;5085406;28;20478;-80
2023/03/03 02:08:44;;;;;;;59.15;15.80;;;;;;;-148.88;100.00;77626.06;5104283;28;20522;-80
2023/03/03 02:11:09;;;;;;;73.18;16.10;;;;;;;-148.88;100.00;77640.28;5106399;28;20040;-81
2023/03/03 02:13:35;;;;;;;71.75;17.15;;;;;;;-148.88;100.00;77646.38;5087919;28;20024;-80
2023/03/03 02:16:01;;;;;;;63.83;17.65;;;;;;;-148.88;100.00;77648.41;5106931;28;20031;-80
2023/03/03 02:18:27;;;;;;;71.78;18.50;;;;;;;-148.88;100.00;77662.63;5087915;28;20087;-81
2023/03/03 02:21:11;;;;;;;70.18;16.85;;;;;;;-148.88;100.00;77638.25;5087769;28;20024;-81
2023/03/03 02:23:58;;;;;;;73.05;17.85;;;;;;;-148.88;100.00;77678.91;5087688;28;20092;-81
2023/03/03 02:26:26;;;;;;;65.75;16.20;;;;;;;-148.88;100.00;77674.84;5087791;28;20028;-81
2023/03/03 02:28:51;;;;;;;57.80;17.42;;;;;;;-148.88;100.00;77666.69;5105459;28;20016;-80
2023/03/03 02:31:20;;;;;;;58.15;15.05;;;;;;;-148.88;100.00;77646.38;5082393;28;20063;-80
2023/03/03 02:33:49;;;;;;;64.80;16.58;;;;;;;-148.88;100.00;77662.63;5079342;28;20034;-80
2023/03/03 02:36:30;;;;;;;72.03;16.85;;;;;;;-148.88;100.00;77652.47;5081830;28;20016;-80
2023/03/03 02:39:14;;;;;;;63.65;16.88;;;;;;;-148.88;100.00;77674.84;5083432;28;20013;-81
2023/03/03 02:41:54;;;;;;;;;;;;;;;-148.88;100.00;77650.44;5103249;28;20024;-80
2023/03/03 02:44:25;;;;;;;61.67;16.70;;;;;;;-148.88;100.00;77654.50;5104674;28;19915;-81
2023/03/03 02:46:52;;;;;;;68.93;15.50;;;;;;;-148.88;100.00;77680.94;5088006;28;20020;-82
2023/03/03 02:49:21;;;;;;;65.72;16.08;;;;;;;-148.88;100.00;77666.69;5088080;28;20020;-80
2023/03/03 02:51:46;;;;;;;56.13;15.30;;;;;;;-148.88;100.00;77664.66;5087245;28;20028;-80
2023/03/03 02:54:13;;;;;;;71.38;16.75;;;;;;;-148.88;100.00;77687.03;5087770;28;20127;-80
2023/03/03 02:56:39;;;;;;;59.72;14.82;;;;;;;-148.88;100.00;77687.03;5106394;28;20016;-81
2023/03/03 02:59:05;;;;;;;53.03;15.02;;;;;;;-148.88;100.00;77646.38;5087883;28;20024;-81
2023/03/03 03:01:35;;;;;;;66.05;16.65;;;;;;;-148.88;100.00;77678.91;5105602;28;20024;-80
2023/03/03 03:04:02;;;;;;;52.65;13.90;;;;;;;-148.88;100.00;77670.75;5086986;28;20026;-80
2023/03/03 03:06:27;;;;;;;71.10;16.63;;;;;;;-148.88;100.00;77697.19;5102553;28;20016;-81
2023/03/03 03:08:52;;;;;;;57.47;13.25;;;;;;;-148.88;100.00;77682.97;5078372;28;20017;-80
2023/03/03 03:11:18;;;;;;;58.38;15.98;;;;;;;-148.88;100.00;77672.78;5103136;28;20478;-81
2023/03/03 03:13:43;;;;;;;59.47;14.85;;;;;;;-148.88;100.00;77640.28;5085188;28;20089;-80
2023/03/03 03:16:09;;;;;;;61.67;15.15;;;;;;;-148.88;100.00;77660.59;5104320;28;20023;-80
2023/03/03 03:18:34;;;;;;;61.25;15.07;;;;;;;-148.88;100.00;77680.94;5087125;28;20021;-81
2023/03/03 03:21:07;;;;;;;64.65;16.38;;;;;;;-148.88;100.00;77676.88;5088895;28;20036;-81
2023/03/03 03:23:33;;;;;;;65.38;16.90;;;;;;;-148.88;100.00;77666.69;5107205;28;20024;-81
2023/03/03 03:25:59;;;;;;;70.90;17.08;;;;;;;-148.88;100.00;77678.91;5105834;28;20053;-80
2023/03/03 03:28:24;;;;;;;62.17;14.20;;;;;;;-148.88;100.00;77668.72;5086836;28;20077;-80
2023/03/03 03:30:50;;;;;;;65.32;16.38;;;;;;;-148.88;100.00;77707.34;5105708;28;20032;-81
2023/03/03 03:33:15;;;;;;;64.32;17.15;;;;;;;-148.88;100.00;77701.25;5105380;28;20027;-81
2023/03/03 03:35:44;;;;;;;64.63;15.90;;;;;;;-148.88;100.00;77715.47;5087326;28;20028;-81
2023/03/03 03:38:10;;;;;;;64.65;16.27;;;;;;;-148.88;100.00;77689.06;5107144;28;20020;-82
2023/03/03 03:40:35;;;;;;;63.88;14.95;;;;;;;-148.88;100.00;77693.13;5109356;28;20080;-80
2023/03/03 03:43:00;;;;;;;65.03;17.85;;;;;;;-148.88;100.00;77745.97;5090367;28;20375;-81
2023/03/03 03:45:25;;;;;;;71.88;16.25;;;;;;;-148.88;100.00;77713.44;5082007;28;20056;-80
2023/03/03 03:47:51;;;;;;;65.97;15.18;;;;;;;-148.88;100.00;77672.78;5083218;28;20043;-80
2023/03/03 03:50:16;;;;;;;70.57;16.60;;;;;;;-148.88;100.00;77703.28;5084964;28;20166;-80
2023/03/03 03:52:42;;;;;;;58.63;15.23;;;;;;;-148.88;100.00;77703.28;5105048;28;20385;-82
2023/03/03 03:55:08;;;;;;;67.80;16.50;;;;;;;-148.88;100.00;77689.06;5110002;28;20042;-81
2023/03/03 03:57:33;;;;;;;59.17;14.35;;;;;;;-148.88;100.00;77701.25;5090663;28;20030;-80
2023/03/03 03:59:59;;;;;;;55.53;13.55;;;;;;;-148.88;100.00;77699.22;5090768;28;20081;-80
2023/03/03 04:02:24;;;;;;;70.03;16.02;;;;;;;-148.88;100.00;77705.31;5109020;28;20076;-81
2023/03/03 04:04:49;;;;;;;66.75;15.15;;;;;;;-148.88;100.00;77695.16;5109386;28;20028;-81
2023/03/03 04:07:15;;;;;;;62.92;15.27;;;;;;;-148.88;100.00;77711.41;5109544;28;20106;-80
2023/03/03 04:09:40;;;;;;;83.07;15.75;;;;;;;-148.88;100.00;77691.09;5090465;28;20030;-81
2023/03/03 04:12:06;;;;;;;66.03;15.45;;;;;;;-148.88;100.00;77662.63;5108848;28;20035;-80
2023/03/03 04:14:31;;;;;;;57.53;13.05;;;;;;;-148.88;100.00;77691.09;5108752;28;20030;-80
2023/03/03 04:16:56;;;;;;;58.70;14.30;;;;;;;-148.88;100.00;77674.84;5108705;28;20024;-81
2023/03/03 04:19:22;;;;;;;59.33;13.90;;;;;;;-148.88;100.00;77682.97;5108582;28;20028;-80
2023/03/03 04:21:52;;;;;;;64.10;14.80;;;;;;;-148.88;100.00;77703.28;5118757;22;20036;-86
2023/03/03 04:24:20;;;;;;;60.15;14.85;;;;;;;-148.88;100.00;77711.41;5103869;28;20052;-86
2023/03/03 04:26:52;;;;;;;67.95;16.02;;;;;;;-148.88;100.00;77670.75;5099787;28;20016;-85
2023/03/03 04:29:44;;;;;;;64.05;14.52;;;;;;;-148.88;100.00;77733.75;5081055;28;20024;-86
2023/03/03 04:32:23;;;;;;;74.03;14.98;;;;;;;-148.88;100.00;77695.16;5061665;28;20038;-86
2023/03/03 04:34:49;;;;;;;80.13;16.08;;;;;;;-148.88;100.00;77723.59;5111042;22;20559;-84
2023/03/03 04:37:14;;;;;;;78.60;15.98;;;;;;;-148.88;100.00;77733.75;5094305;28;20024;-83
2023/03/03 04:39:39;;;;;;;61.67;14.55;;;;;;;-148.88;100.00;77715.47;5096471;28;20020;-82
2023/03/03 04:42:05;;;;;;;78.72;15.57;;;;;;;-148.88;100.00;77721.56;5095950;28;20020;-84
2023/03/03 04:44:30;;;;;;;70.20;15.13;;;;;;;-148.88;100.00;77727.66;5095916;28;20020;-85
2023/03/03 04:47:07;;;;;;;76.45;16.05;;;;;;;-148.88;100.00;77727.66;5096552;28;20497;-84
2023/03/03 04:49:53;;;;;;;77.55;15.85;;;;;;;-148.88;100.00;77748.00;5094885;28;20020;-85
2023/03/03 04:52:19;;;;;;;80.53;16.33;;;;;;;-148.88;100.00;77743.94;5094438;28;20020;-84
2023/03/03 04:55:00;;;;;;;65.60;14.63;;;;;;;-148.88;100.00;77739.84;5099977;28;20030;-83
2023/03/03 04:57:25;;;;;;;66.32;14.77;;;;;;;-148.88;100.00;77748.00;5097236;28;20035;-84
2023/03/03 04:59:54;;;;;;;68.63;16.00;;;;;;;-148.88;100.00;77780.50;5096862;28;20036;-85
2023/03/03 05:02:39;;;;;;;62.20;14.98;;;;;;;-148.88;100.00;77731.72;5096323;28;20020;-84
2023/03/03 05:05:09;;;;;;;64.28;16.38;;;;;;;-148.88;100.00;77717.50;5095619;28;20125;-85
2023/03/03 05:07:39;;;;;;;68.35;15.60;;;;;;;-148.88;100.00;77727.66;5098783;28;20102;-84
2023/03/03 05:10:11;;;;;;;56.85;14.40;;;;;;;-148.88;100.00;77737.81;5097197;28;20024;-84
2023/03/03 05:12:37;;;;;;;68.68;17.85;;;;;;;-148.88;100.00;77756.13;5093179;28;20050;-84
2023/03/03 05:15:06;;;;;;;58.38;15.38;;;;;;;-148.88;100.00;77735.78;5093698;28;20386;-84
2023/03/03 05:17:31;;;;;;;64.05;15.18;;;;;;;-148.88;100.00;77760.19;5094198;28;20023;-83
2023/03/03 05:19:57;;;;;;;62.22;14.77;;;;;;;-148.88;100.00;77733.75;5094855;28;20023;-84
2023/03/03 05:22:31;;;;;;;64.47;15.32;;;;;;;-148.88;100.00;77745.97;5096932;28;20130;-85
2023/03/03 05:25:02;;;;;;;57.85;14.10;;;;;;;-148.88;100.00;77760.19;5094028;28;20066;-84
2023/03/03 05:27:28;;;;;;;65.05;15.15;;;;;;;-148.88;100.00;77760.19;5083965;28;20051;-84
2023/03/03 05:30:02;;;;;;;70.43;14.75;;;;;;;-148.88;100.00;77772.38;5095857;28;20516;-84
2023/03/03 05:32:34;;;;;;;62.20;14.57;;;;;;;-148.88;100.00;77770.34;5096298;28;20055;-83
2023/03/03 05:35:00;;;;;;;63.03;14.93;;;;;;;-148.88;100.00;77741.88;5092984;28;20094;-84
2023/03/03 05:37:28;;;;;;;61.83;15.07;;;;;;;-148.88;100.00;77768.31;5095570;28;20031;-86
2023/03/03 05:39:54;;;;;;;60.60;15.90;;;;;;;-148.88;100.00;77772.38;5094486;28;20035;-86
2023/03/03 05:42:19;;;;;;;63.50;15.13;;;;;;;-148.88;100.00;77760.19;5094742;28;20020;-87
2023/03/03 05:44:59;;;;;;;68.00;15.80;;;;;;;-148.88;100.00;77756.13;5093280;28;20549;-87
2023/03/03 05:47:31;;;;;;;58.95;15.02;;;;;;;-148.88;100.00;77768.31;5093430;28;20114;-86
2023/03/03 05:50:09;;;;;;;69.55;16.13;;;;;;;-148.88;100.00;77758.16;5093490;28;20386;-87
2023/03/03 05:52:34;;;;;;;63.60;14.65;;;;;;;-148.88;100.00;77776.44;5093167;28;20035;-86
2023/03/03 05:54:59;;;;;;;59.08;15.88;;;;;;;-148.88;100.00;77739.84;5093022;28;20024;-86
2023/03/03 05:57:36;;;;;;;65.18;15.90;;;;;;;-148.88;100.00;77743.94;5094655;28;20043;-86
2023/03/03 06:00:04;;;;;;;62.83;15.98;;;;;;;-148.88;100.00;77743.94;5093410;28;20027;-86
2023/03/03 06:02:42;;;;;;;57.92;14.20;;;;;;;-148.88;100.00;77731.72;5094352;28;20390;-86
2023/03/03 06:05:07;;;;;;;63.03;15.63;;;;;;;-148.88;100.00;77752.06;5096094;28;20058;-87
2023/03/03 06:07:33;;;;;;;65.25;15.93;;;;;;;-148.88;100.00;77721.56;5095869;28;20019;-86
2023/03/03 06:09:59;;;;;;;62.17;15.73;;;;;;;-148.88;100.00;77784.56;5095709;28;20024;-85
2023/03/03 06:12:40;;;;;;;58.15;15.95;;;;;;;-148.88;100.00;77739.84;5095917;28;20024;-86
2023/03/03 06:15:12;;;;;;;70.60;16.67;;;;;;;-148.88;100.00;77776.44;5095592;28;20051;-86
2023/03/03 06:17:46;;;;;;;65.53;16.98;;;;;;;-148.88;100.00;77790.66;5097103;28;20028;-86
2023/03/03 06:23:23;;;;;;;58.05;14.32;;;;;;;-148.88;100.00;77743.94;5096662;28;20052;-84
2023/03/03 06:25:49;;;;;;;70.30;15.07;;;;;;;-148.88;100.00;77766.28;5097412;28;20077;-86
2023/03/03 06:28:52;;;;;;;66.97;17.02;;;;;;;-148.88;100.00;77772.38;5097387;28;20020;-86
2023/03/03 06:31:24;;;;;;;55.38;14.55;;;;;;;-148.88;100.00;77752.06;5085600;28;20406;-84
2023/03/03 06:33:50;;;;;;;66.07;15.38;;;;;;;-148.88;100.00;77760.19;5094854;28;20443;-86
2023/03/03 06:36:22;;;;;;;67.95;15.93;;;;;;;-148.88;100.00;77733.75;5092582;28;20032;-86
2023/03/03 06:38:56;;;;;;;58.38;14.80;;;;;;;-148.88;100.00;77760.19;5090751;28;20039;-84
2023/03/03 06:41:22;;;;;;;58.20;14.55;;;;;;;-148.88;100.00;77760.19;5091821;28;20032;-85
2023/03/03 06:43:53;;;;;;;60.35;16.90;;;;;;;-148.88;100.00;77762.22;5093286;28;20449;-86
2023/03/03 06:46:32;;;;;;;50.38;14.02;;;;;;;-148.88;100.00;77780.50;5091732;28;20389;-86
2023/03/03 06:48:57;;;;;;;63.42;16.15;;;;;;;-148.88;100.00;77774.41;5092240;28;20031;-86
2023/03/03 06:51:28;;;;;;;55.78;13.68;;;;;;;-148.88;100.00;77756.13;5093569;28;20089;-86
2023/03/03 06:53:55;;;;;;;59.33;15.52;;;;;;;-148.88;100.00;77741.88;5094033;28;20020;-85
2023/03/03 06:56:24;;;;;;;51.47;14.35;;;;;;;-148.88;100.00;77743.94;5094562;28;20024;-85
2023/03/03 06:58:53;;;;;;;56.80;15.73;;;;;;;-148.88;100.00;77772.38;5094221;28;20016;-85
2023/03/03 07:01:21;;;;;;;57.42;15.10;;;;;;;-148.88;100.00;77780.50;5094403;28;20035;-85
2023/03/03 07:04:02;;;;;;;55.50;14.55;;;;;;;-148.88;100.00;77735.78;5093472;28;20466;-86
2023/03/03 07:06:28;;;;;;;57.85;14.25;;;;;;;-148.88;100.00;77735.78;5094146;28;20040;-87
2023/03/03 07:08:56;;;;;;;51.95;14.50;;;;;;;-148.88;100.00;77741.88;5092834;28;20083;-85
2023/03/03 07:11:22;;;;;;;56.25;13.98;;;;;;;-148.88;100.00;77772.38;5094477;28;20040;-85
2023/03/03 07:13:53;;;;;;;59.72;15.32;;;;;;;-148.88;100.00;77743.94;5097747;28;20389;-85
2023/03/03 07:16:24;;;;;;;46.60;13.38;;;;;;;-148.88;100.00;77776.44;5097265;28;20020;-84
2023/03/03 07:18:56;;;;;;;55.53;13.48;;;;;;;-148.88;100.00;77772.38;5097726;28;20020;-85
2023/03/03 07:21:24;;;;;;;51.08;14.73;;;;;;;-148.88;100.00;77784.56;5097287;28;20059;-85
2023/03/03 07:23:52;;;;;;;51.38;13.27;;;;;;;-148.88;100.00;77776.44;5095594;28;20035;-84
2023/03/03 07:26:21;;;;;;;55.78;15.32;;;;;;;-148.88;100.00;77770.34;5097157;28;20028;-84
2023/03/03 07:28:57;;;;;;;57.25;14.93;;;;;;;-148.88;100.00;77768.31;5095890;28;20024;-86
2023/03/03 07:31:38;;;;;;;51.80;14.02;;;;;;;-148.88;100.00;77776.44;5096948;28;20031;-86
2023/03/03 07:34:23;;;;;;;51.17;13.27;;;;;;;-148.88;100.00;77756.13;5096789;28;20020;-85
2023/03/03 07:36:52;;;;;;;55.97;15.07;;;;;;;-148.88;100.00;77784.56;5095753;28;20036;-86
2023/03/03 07:39:23;;;;;;;58.92;14.82;;;;;;;-148.88;100.00;77770.34;5096745;28;20028;-85
2023/03/03 07:41:48;;;;;;;61.75;13.57;;;;;;;-148.88;100.00;77780.50;5095229;28;20111;-86
2023/03/03 07:44:21;;;;;;;53.30;13.45;;;;;;;-148.88;100.00;77798.78;5095785;28;20118;-86
2023/03/03 07:46:48;;;;;;;52.20;13.32;;;;;;;-148.88;100.00;77796.75;5096813;28;20031;-87
2023/03/03 07:49:20;;;;;;;57.75;14.63;;;;;;;-148.88;100.00;77756.13;5095543;28;20116;-86
2023/03/03 07:51:46;;;;;;;51.53;15.70;;;;;;;-148.88;100.00;77772.38;5096225;28;20020;-85
2023/03/03 07:54:29;;;;;;;53.80;14.77;;;;;;;-148.88;100.00;77758.16;5094992;28;20123;-85
2023/03/03 07:57:12;;;;;;;53.53;13.18;;;;;;;-148.88;100.00;77780.50;5097036;28;20038;-86
2023/03/03 08:00:15;;;;;;;47.70;12.57;;;;;;;-148.88;100.00;77748.00;5096953;28;20053;-86
2023/03/03 08:03:02;;;;;;;46.13;14.27;;;;;;;-148.88;100.00;77748.00;5093581;28;20040;-86
2023/03/03 08:05:43;;;;;;;45.55;12.15;;;;;;;-148.88;100.00;77756.13;5096776;28;20745;-85
2023/03/03 08:08:08;;;;;;;45.90;13.98;;;;;;;-148.88;100.00;77723.59;5096326;28;20073;-86
2023/03/03 08:10:42;;;;;;;45.83;13.38;;;;;;;-148.88;100.00;77756.13;5094443;28;20031;-86
2023/03/03 08:13:42;;;;;;;55.10;13.63;;;;;;;-148.88;99.96;77750.03;5094824;28;20032;-85
2023/03/03 08:16:07;;;;;;;58.33;14.27;;;;;;;-148.88;99.80;77762.22;5092716;28;20042;-85
2023/03/03 08:18:50;;;;;;;45.50;12.98;;;;;;;-148.88;99.94;77727.66;5096156;28;20015;-85
2023/03/03 08:21:22;;;;;;;44.10;14.07;;;;;;;-148.88;99.03;77729.69;5094714;28;20394;-85
2023/03/03 08:23:52;;;;;;;51.70;13.82;;;;;;;-148.88;98.75;77733.75;5094172;28;20066;-85
2023/03/03 08:26:26;;;;;;;45.50;12.52;;;;;;;-148.88;97.99;77701.25;5096080;28;20030;-84
2023/03/03 08:28:52;;;;;;;52.95;13.60;;;;;;;-148.88;97.05;77687.03;5095072;28;20028;-85
2023/03/03 08:31:18;;;;;;;49.45;14.57;;;;;;;-148.88;96.83;77699.22;5096046;28;20070;-85
2023/03/03 08:33:44;;;;;;;52.30;14.75;;;;;;;-148.88;96.47;77676.88;5093969;28;20085;-85
2023/03/03 08:36:12;;;;;;;46.17;13.32;;;;;;;-148.88;95.96;77646.38;5094336;28;20024;-85
2023/03/03 08:38:38;;;;;;;47.03;13.52;;;;;;;-148.88;96.03;77668.72;5095415;28;20024;-86
2023/03/03 08:41:09;;;;;;;45.30;13.95;;;;;;;-148.88;95.71;77666.69;5095380;28;20027;-85
2023/03/03 08:43:35;;;;;;;51.15;13.68;;;;;;;-148.88;95.81;77634.19;5095930;28;20032;-85
2023/03/03 08:46:04;;;;;;;55.95;16.23;;;;;;;-148.88;96.39;77682.97;5095385;28;20031;-85
2023/03/03 08:48:29;;;;;;;49.80;13.48;;;;;;;-148.88;96.86;77617.94;5095629;28;20030;-84
2023/03/03 08:50:58;;;;;;;42.95;12.95;;;;;;;-148.88;95.61;77670.75;5096595;28;20028;-85
2023/03/03 08:53:23;;;;;;;46.85;12.77;;;;;;;-148.88;95.72;77642.31;5096106;28;20020;-85
2023/03/03 08:55:49;;;;;;;47.92;12.75;;;;;;;-148.88;94.67;77617.94;5094860;28;20038;-86
2023/03/03 08:58:16;;;;;;;44.85;13.70;;;;;;;-148.88;93.46;77607.78;5095545;28;20023;-85
2023/03/03 09:00:42;;;;;;;43.58;11.88;;;;;;;-148.88;95.07;77654.50;5094680;28;20478;-86
2023/03/03 09:03:08;;;;;;;40.75;12.73;;;;;;;-148.88;95.56;77687.03;5094990;28;20154;-86
2023/03/03 09:05:35;;;;;;;45.13;12.90;;;;;;;-148.88;96.06;77691.09;5094557;28;20055;-85
2023/03/03 09:08:00;;;;;;;45.17;13.32;;;;;;;-148.88;95.23;77670.75;5094313;28;20078;-86
2023/03/03 09:10:28;;;;;;;44.13;12.68;;;;;;;-148.88;95.43;77701.25;5095737;28;20084;-85
2023/03/03 09:12:57;;;;;;;45.85;12.88;;;;;;;-148.88;95.84;77664.66;5094809;28;20024;-86
2023/03/03 09:15:29;;;;;;;48.97;12.00;;;;;;;-148.88;94.01;77622.00;5093592;28;20100;-85
2023/03/03 09:18:34;;;;;;;39.25;11.80;;;;;;;-148.88;94.54;77638.25;5094261;28;20051;-84
2023/03/03 09:21:04;;;;;;;38.53;11.20;;;;;;;-148.88;93.50;77626.06;5095882;28;20058;-85
2023/03/03 09:23:36;;;;;;;45.63;13.55;;;;;;;-148.88;92.26;77638.25;5094921;28;20051;-85
2023/03/03 09:26:25;;;;;;;40.50;11.65;;;;;;;-148.88;92.90;77650.44;5094553;28;20031;-85
2023/03/03 09:28:54;;;;;;;41.72;10.77;;;;;;;-148.88;94.07;77703.28;5093353;28;20022;-86
2023/03/03 09:31:37;;;;;;;34.80;10.68;;;;;;;-148.88;95.59;77687.03;5093752;28;20462;-84
2023/03/03 09:34:15;;;;;;;37.38;11.00;;;;;;;-148.88;95.35;77709.38;5094680;28;20052;-86
2023/03/03 09:36:41;;;;;;;40.67;12.75;;;;;;;-148.88;97.11;77731.72;5094785;28;20370;-85
2023/03/03 09:39:21;;;;;;;41.97;11.40;;;;;;;-148.88;97.02;77707.34;5095235;28;20122;-85
2023/03/03 09:41:55;;;;;;;46.35;11.77;;;;;;;-148.88;96.95;77727.66;5092900;28;20219;-85
2023/03/03 09:44:48;;;;;;;42.22;11.60;;;;;;;-148.88;96.25;77729.69;5094291;28;20035;-85
2023/03/03 09:47:32;;;;;;;46.00;12.25;;;;;;;-148.88;93.82;77670.75;5090687;28;20032;-86
2023/03/03 09:50:06;;;;;;;38.25;10.77;;;;;;;-148.88;95.74;77717.50;5093897;28;20020;-84
2023/03/03 09:52:34;;;;;;;32.65;11.40;;;;;;;-148.88;95.19;77695.16;5094038;28;20024;-85
2023/03/03 09:55:27;;;;;;;41.40;11.15;;;;;;;-148.88;95.27;77668.72;5095172;28;20052;-86
2023/03/03 09:58:31;;;;;;;41.08;11.60;;;;;;;-148.88;92.63;77622.00;5094713;28;20028;-85
2023/03/03 10:01:18;;;;;;;44.38;10.85;;;;;;;-148.88;90.45;77636.22;5070997;28;20122;-85
2023/03/03 10:03:52;;;;;;;40.92;10.52;;;;;;;-148.88;91.29;77601.66;5093884;28;20031;-85
2023/03/03 10:06:24;;;;;;;39.40;11.43;;;;;;;-148.88;93.87;77664.66;5093653;28;20035;-85
2023/03/03 10:08:52;;;;;;;43.88;12.10;;;;;;;-148.88;96.22;77713.44;5093993;28;20020;-86
2023/03/03 10:11:42;;;;;;;44.38;13.95;;;;;;;-148.88;96.58;77711.41;5095173;28;20059;-85
2023/03/03 10:14:24;;;;;;;40.05;11.95;;;;;;;-148.88;98.46;77723.59;5093422;28;20123;-86
2023/03/03 10:17:16;;;;;;;41.60;12.68;;;;;;;-148.88;95.94;77682.97;5094446;28;20035;-85
2023/03/03 10:20:02;;;;;;;44.80;13.05;;;;;;;-148.88;97.17;77719.53;5093242;28;20111;-86
2023/03/03 10:22:42;;;;;;;40.53;11.32;;;;;;;-148.88;99.09;77727.66;5092772;28;20028;-86
2023/03/03 10:25:30;;;;;;;46.40;11.63;;;;;;;-148.88;96.88;77703.28;5093639;28;20066;-85
2023/03/03 10:28:18;;;;;;;46.72;12.48;;;;;;;-148.88;97.62;77731.72;5094007;28;20103;-86
2023/03/03 10:30:58;;;;;;;44.22;12.23;;;;;;;-148.88;97.35;77743.94;5094497;28;20023;-86
2023/03/03 10:33:44;;;;;;;43.65;12.85;;;;;;;-148.88;95.94;77693.13;5092961;28;20031;-85
2023/03/03 10:36:28;;;;;;;40.75;10.57;;;;;;;-148.88;94.77;77670.75;5094627;28;20027;-85
2023/03/03 10:39:24;;;;;;;41.10;10.57;;;;;;;-148.88;92.17;77626.06;5096426;28;20490;-85
2023/03/03 10:42:19;;;;;;;36.47;9.65;;;;;;;-148.88;92.17;77634.19;5096405;28;20039;-85
2023/03/03 10:44:59;;;;;;;34.42;9.85;;;;;;;-148.88;90.79;77628.09;5094986;28;20028;-86
2023/03/03 10:47:48;;;;;;;34.28;8.82;;;;;;;-148.88;91.31;77640.28;5097678;28;20024;-86
2023/03/03 10:50:25;;;;;;;34.75;9.57;;;;;;;-148.88;95.27;77715.47;5099528;28;20084;-85
2023/03/03 10:52:56;;;;;;;41.00;11.25;;;;;;;-148.88;94.22;77687.03;5098263;28;20057;-86
2023/03/03 10:55:35;;;;;;;31.55;10.02;;;;;;;-148.88;94.44;77727.66;5098380;28;20020;-85
2023/03/03 10:58:42;;;;;;;35.10;10.85;;;;;;;-148.88;93.45;77678.91;5097111;28;20034;-85
2023/03/03 11:01:43;;;;;;;31.65;9.23;;;;;;;-148.88;92.56;77622.00;5097709;28;20020;-85
2023/03/03 11:04:11;;;;;;;33.42;10.25;;;;;;;-148.88;89.63;77597.59;5099013;28;20489;-85
2023/03/03 11:07:05;;;;;;;31.02;10.02;;;;;;;-148.88;90.96;77632.16;5098422;28;20042;-85
2023/03/03 11:09:34;;;;;;;34.65;10.82;;;;;;;-148.88;89.40;77599.63;5098234;28;20024;-86
2023/03/03 11:12:29;;;;;;;35.08;9.80;;;;;;;-148.88;92.68;77652.47;5096282;28;20024;-86
2023/03/03 11:15:12;;;;;;;35.72;9.95;;;;;;;-148.88;90.73;77605.75;5097985;28;20028;-84
2023/03/03 11:17:56;;;;;;;29.60;9.77;;;;;;;-148.88;87.84;77540.72;5097963;28;20054;-85
2023/03/03 11:20:55;;;;;;;30.40;9.82;;;;;;;-148.88;91.03;77601.66;5098023;28;20101;-85
2023/03/03 11:23:45;;;;;;;31.40;10.45;;;;;;;-148.88;89.64;77573.22;5086503;28;20520;-84